This is the latest recevied weather packets stored in our database for station/object HS5FXK-3. If no packets are shown the sender has not sent any weather packets the latest 10 day(s).
| Time | Temp. | Humidity | Pressure | Rain* | Wind** | Luminosity | Snow |
|---|---|---|---|---|---|---|---|
| 1777553245 | 27.22° C | 98% | 979 hPa | - | - | 0 W/m² | - |
| 1777552332 | 27.78° C | 99% | 979 hPa | - | - | 0 W/m² | - |
| 1777551420 | 27.22° C | 98% | 979 hPa | - | - | 0 W/m² | - |
| 1777550508 | 27.22° C | 99% | 979 hPa | - | - | 0 W/m² | - |
| 1777549595 | 27.78° C | 99% | 979 hPa | - | - | 0 W/m² | - |
| 1777548683 | 27.78° C | 99% | 978 hPa | - | - | 0 W/m² | - |
| 1777547770 | 27.78° C | 97% | 978 hPa | - | - | 0 W/m² | - |
| 1777546858 | 27.22° C | 99% | 978 hPa | - | - | 0 W/m² | - |
| 1777545945 | 27.22° C | 98% | 978 hPa | - | - | 0 W/m² | - |
| 1777545033 | 28.33° C | 93% | 977 hPa | - | - | 0 W/m² | - |
| 1777544121 | 27.78° C | 94% | 977 hPa | - | - | 0 W/m² | - |
| 1777543208 | 27.78° C | 93% | 977 hPa | - | - | 0 W/m² | - |
| 1777542296 | 27.22° C | 94% | 978 hPa | - | - | 0 W/m² | - |
| 1777541384 | 27.22° C | 83% | 978 hPa | - | - | 0 W/m² | - |
| 1777540471 | 27.78° C | 75% | 976 hPa | - | - | 0 W/m² | - |
| 1777539561 | 28.89° C | 74% | 977 hPa | - | - | 0 W/m² | - |
| 1777538750 | 27.78° C | 69% | 977 hPa | - | - | 0 W/m² | - |
| 1777537835 | 34.44° C | 45% | 976 hPa | - | - | 0 W/m² | - |
| 1777536923 | 37.78° C | 39% | 976 hPa | - | - | 0 W/m² | - |
| 1777535091 | 36.11° C | 42% | 977 hPa | - | - | 0 W/m² | - |
| 1777534178 | 36.67° C | 40% | 977 hPa | - | - | 0 W/m² | - |
| 1777533520 | 37.78° C | 39% | 977 hPa | - | - | 0 W/m² | - |
| 1777532743 | 37.78° C | 38% | 978 hPa | - | - | 0 W/m² | - |
| 1777531830 | 38.89° C | 37% | 978 hPa | - | - | 0 W/m² | - |
| 1777530918 | 37.22° C | 40% | 978 hPa | - | - | 0 W/m² | - |
* Rain since midnight (hover to see other rain measurements)
** Current wind speed in m/s (hover to see current wind gust speed)